Time;durP1;ratioP1;P1;durP2;ratioP2;P2;SDS_P1;SDS_P2;PMS_P1;PMS_P2;Temp;Humidity;BMP_temperature;BMP_pressure;BME280_temperature;BME280_humidity;BME280_pressure;Samples;Min_cycle;Max_cycle;Signal;HPM_P1;HPM_P2
2024/01/07 00:00:17;;;;;;;36.63;18.48;;;3.40;99.90;;;;;;4917690;28;88072;-80
2024/01/07 00:02:43;;;;;;;39.05;20.38;;;3.40;99.90;;;;;;4937205;28;87535;-79
2024/01/07 00:05:09;;;;;;;39.50;20.25;;;3.40;99.90;;;;;;4917159;28;87458;-79
2024/01/07 00:07:35;;;;;;;47.63;20.63;;;3.30;99.90;;;;;;4954721;28;89000;-80
2024/01/07 00:10:01;;;;;;;39.42;19.35;;;3.30;99.90;;;;;;4939948;28;88135;-81
2024/01/07 00:12:27;;;;;;;49.17;21.08;;;3.30;99.90;;;;;;4956646;28;88716;-80
2024/01/07 00:14:52;;;;;;;50.75;21.52;;;3.30;99.90;;;;;;4951867;28;87581;-79
2024/01/07 00:17:18;;;;;;;49.35;21.98;;;3.30;99.90;;;;;;4948456;28;89549;-80
2024/01/07 00:19:45;;;;;;;45.90;21.75;;;3.30;99.90;;;;;;4933670;28;88713;-80
2024/01/07 00:22:13;;;;;;;43.55;20.23;;;3.30;99.90;;;;;;4922054;28;88006;-79
2024/01/07 00:24:38;;;;;;;42.97;21.15;;;3.30;99.90;;;;;;4937221;28;86590;-78
2024/01/07 00:27:08;;;;;;;45.80;21.35;;;3.30;99.90;;;;;;4950151;28;87613;-81
2024/01/07 00:29:35;;;;;;;43.35;20.33;;;3.30;99.90;;;;;;4938822;28;88387;-80
2024/01/07 00:32:02;;;;;;;47.03;21.23;;;3.30;99.90;;;;;;4955441;28;88084;-78
2024/01/07 00:34:28;;;;;;;46.88;21.92;;;3.30;99.90;;;;;;4957459;28;87489;-80
2024/01/07 00:36:53;;;;;;;42.28;20.52;;;3.30;99.90;;;;;;4922597;28;89300;-80
2024/01/07 00:39:19;;;;;;;42.00;20.30;;;3.30;99.90;;;;;;4937487;28;88588;-79
2024/01/07 00:41:45;;;;;;;44.63;21.60;;;3.30;99.90;;;;;;4935229;28;87394;-79
2024/01/07 00:44:10;;;;;;;46.10;20.60;;;3.30;99.90;;;;;;4936307;28;87547;-79
2024/01/07 00:46:38;;;;;;;43.30;21.20;;;3.30;99.90;;;;;;4957189;28;89331;-79
2024/01/07 00:49:07;;;;;;;47.33;22.00;;;3.30;99.90;;;;;;4915692;28;87426;-80
2024/01/07 00:51:34;;;;;;;47.17;22.80;;;3.20;99.90;;;;;;4924950;28;88169;-79
2024/01/07 00:54:00;;;;;;;41.88;20.65;;;3.20;99.90;;;;;;4923685;28;87710;-79
2024/01/07 00:56:26;;;;;;;53.63;22.65;;;3.20;99.90;;;;;;4947200;28;89681;-80
2024/01/07 00:58:52;;;;;;;47.92;20.90;;;3.20;99.90;;;;;;4939489;28;89809;-80
2024/01/07 01:01:21;;;;;;;50.38;22.65;;;3.20;99.90;;;;;;4954991;28;87431;-81
2024/01/07 01:03:47;;;;;;;50.28;23.23;;;3.20;99.90;;;;;;4939409;28;87768;-79
2024/01/07 01:06:12;;;;;;;51.72;21.42;;;3.20;99.90;;;;;;4935301;28;87678;-80
2024/01/07 01:08:41;;;;;;;46.28;21.67;;;3.20;99.90;;;;;;4939090;28;89219;-79
2024/01/07 01:11:10;;;;;;;50.53;22.75;;;3.20;99.90;;;;;;4947674;28;87153;-80
2024/01/07 01:13:41;;;;;;;47.92;21.92;;;3.20;99.90;;;;;;4921268;28;87179;-80
2024/01/07 01:16:06;;;;;;;48.90;21.58;;;3.20;99.90;;;;;;4915682;28;87887;-80
2024/01/07 01:18:33;;;;;;;47.53;21.38;;;3.20;99.90;;;;;;4952793;28;88314;-80
2024/01/07 01:21:00;;;;;;;39.88;20.58;;;3.20;99.90;;;;;;4940086;28;88114;-80
2024/01/07 01:23:33;;;;;;;45.97;20.80;;;3.30;99.90;;;;;;4952809;28;88377;-79
2024/01/07 01:26:05;;;;;;;47.67;21.15;;;3.20;99.90;;;;;;4944659;28;88599;-81
2024/01/07 01:28:31;;;;;;;41.92;21.02;;;3.20;99.90;;;;;;4938797;28;88471;-79
2024/01/07 01:30:57;;;;;;;42.38;19.60;;;3.20;99.90;;;;;;4924088;28;87872;-81
2024/01/07 01:33:23;;;;;;;49.90;20.20;;;3.20;99.90;;;;;;4949791;28;87595;-80
2024/01/07 01:35:48;;;;;;;43.03;19.70;;;3.20;99.90;;;;;;4936960;28;87655;-80
2024/01/07 01:38:15;;;;;;;40.22;19.13;;;3.20;99.90;;;;;;4935113;28;87750;-80
2024/01/07 01:40:41;;;;;;;47.38;21.02;;;3.30;99.90;;;;;;4938351;28;88079;-79
2024/01/07 01:43:07;;;;;;;48.00;21.75;;;3.30;99.90;;;;;;4933338;28;87827;-79
2024/01/07 01:45:33;;;;;;;47.58;22.30;;;3.30;99.90;;;;;;4936585;28;90993;-80
2024/01/07 01:48:00;;;;;;;45.20;20.40;;;3.30;99.90;;;;;;4937244;28;89889;-80
2024/01/07 01:50:26;;;;;;;50.70;21.15;;;3.30;99.90;;;;;;4952434;28;87720;-79
2024/01/07 01:52:56;;;;;;;44.42;21.25;;;3.30;99.90;;;;;;4937987;28;87276;-79
2024/01/07 01:55:22;;;;;;;48.05;20.73;;;3.30;99.90;;;;;;4893620;28;87458;-80
2024/01/07 01:57:50;;;;;;;45.95;22.65;;;3.20;99.90;;;;;;4937608;28;87790;-80
2024/01/07 02:00:16;;;;;;;41.55;19.38;;;3.30;99.90;;;;;;4935749;28;88136;-80
2024/01/07 02:02:42;;;;;;;47.30;20.20;;;3.30;99.90;;;;;;4930702;28;86821;-81
2024/01/07 02:05:09;;;;;;;47.28;20.60;;;3.30;99.90;;;;;;4937965;28;88845;-79
2024/01/07 02:07:37;;;;;;;45.45;20.27;;;3.30;99.90;;;;;;4952006;28;87782;-81
2024/01/07 02:10:03;;;;;;;44.38;20.38;;;3.30;99.90;;;;;;4936232;28;88759;-79
2024/01/07 02:12:30;;;;;;;42.22;19.35;;;3.30;99.90;;;;;;4951880;28;87938;-80
2024/01/07 02:14:56;;;;;;;43.40;20.23;;;3.20;99.90;;;;;;4937530;28;88494;-80
2024/01/07 02:17:22;;;;;;;43.92;20.38;;;3.20;99.90;;;;;;4937276;28;88392;-79
2024/01/07 02:19:48;;;;;;;39.15;18.88;;;3.20;99.90;;;;;;4937757;28;87105;-80
2024/01/07 02:22:17;;;;;;;38.65;17.77;;;3.20;99.90;;;;;;4944628;28;87529;-80
2024/01/07 02:24:46;;;;;;;40.22;19.15;;;3.20;99.90;;;;;;4915805;28;87676;-80
2024/01/07 02:27:12;;;;;;;38.17;18.00;;;3.20;99.90;;;;;;4924418;28;87973;-80
2024/01/07 02:29:38;;;;;;;36.10;17.85;;;3.20;99.90;;;;;;4936079;28;87658;-80
2024/01/07 02:32:04;;;;;;;38.65;17.42;;;3.20;99.90;;;;;;4929933;28;87974;-80
2024/01/07 02:34:30;;;;;;;38.63;18.33;;;3.20;99.90;;;;;;4935046;28;89130;-82
2024/01/07 02:36:56;;;;;;;40.83;17.80;;;3.20;99.90;;;;;;4939112;28;87937;-80
2024/01/07 02:39:22;;;;;;;34.72;17.13;;;3.20;99.90;;;;;;4922165;28;87196;-80
2024/01/07 02:41:49;;;;;;;36.00;17.33;;;3.20;99.90;;;;;;4939648;28;87124;-79
2024/01/07 02:44:15;;;;;;;40.75;17.08;;;3.10;99.90;;;;;;4908266;28;89077;-79
2024/01/07 02:46:41;;;;;;;37.28;17.05;;;3.10;99.90;;;;;;4954587;28;87911;-80
2024/01/07 02:49:07;;;;;;;35.13;17.10;;;3.10;99.90;;;;;;4957432;28;87197;-81
2024/01/07 02:51:33;;;;;;;40.28;18.00;;;3.10;99.90;;;;;;4924523;28;87251;-80
2024/01/07 02:53:59;;;;;;;37.95;17.60;;;3.10;99.90;;;;;;4906677;28;88061;-80
2024/01/07 02:56:25;;;;;;;40.65;18.83;;;3.20;99.90;;;;;;4948661;28;88718;-80
2024/01/07 02:58:51;;;;;;;42.10;18.85;;;3.10;99.90;;;;;;4946996;28;88414;-80
2024/01/07 03:01:17;;;;;;;44.35;19.23;;;3.20;99.90;;;;;;4935998;28;88039;-80
2024/01/07 03:03:48;;;;;;;47.65;21.10;;;3.20;99.90;;;;;;4938492;28;87571;-78
2024/01/07 03:06:14;;;;;;;41.40;20.00;;;3.20;99.90;;;;;;4952580;28;88172;-78
2024/01/07 03:08:41;;;;;;;44.70;19.45;;;3.20;99.90;;;;;;4936428;28;87090;-80
2024/01/07 03:11:08;;;;;;;40.42;20.63;;;3.20;99.90;;;;;;4926113;28;87341;-79
2024/01/07 03:13:35;;;;;;;43.58;20.67;;;3.20;99.90;;;;;;4922962;28;87227;-79
2024/01/07 03:16:01;;;;;;;46.83;21.20;;;3.20;99.90;;;;;;4922295;28;89030;-79
2024/01/07 03:18:29;;;;;;;47.55;21.77;;;3.20;99.90;;;;;;4951531;28;88028;-80
2024/01/07 03:20:55;;;;;;;44.63;19.80;;;3.20;99.90;;;;;;4935554;28;87921;-80
2024/01/07 03:23:21;;;;;;;45.97;20.35;;;3.20;99.90;;;;;;4938386;28;91047;-79
2024/01/07 03:25:47;;;;;;;40.45;19.58;;;3.20;99.90;;;;;;4945772;28;88925;-79
2024/01/07 03:28:16;;;;;;;46.92;21.25;;;3.20;99.90;;;;;;4960633;28;87742;-78
2024/01/07 03:30:42;;;;;;;46.95;21.02;;;3.10;99.90;;;;;;4951170;28;87034;-80
2024/01/07 03:33:08;;;;;;;45.10;20.30;;;3.10;99.90;;;;;;4942234;28;89272;-79
2024/01/07 03:35:36;;;;;;;47.08;20.75;;;3.10;99.90;;;;;;4950262;28;88999;-80
2024/01/07 03:38:02;;;;;;;44.80;21.05;;;3.10;99.90;;;;;;4908552;28;88059;-81
2024/01/07 03:40:30;;;;;;;46.05;21.23;;;3.10;99.90;;;;;;4949714;28;87512;-79
2024/01/07 03:42:58;;;;;;;45.88;21.45;;;3.10;99.90;;;;;;4925769;28;88577;-80
2024/01/07 03:45:25;;;;;;;43.92;19.88;;;3.10;99.90;;;;;;4942893;28;87613;-81
2024/01/07 03:47:53;;;;;;;46.95;20.92;;;3.10;99.90;;;;;;4941998;28;88509;-81
2024/01/07 03:50:19;;;;;;;48.95;21.60;;;3.10;99.90;;;;;;4939259;28;87734;-79
2024/01/07 03:52:46;;;;;;;47.53;21.77;;;3.10;99.90;;;;;;4941135;28;88316;-79
2024/01/07 03:55:12;;;;;;;48.78;21.00;;;3.10;99.90;;;;;;4932208;28;88164;-79
2024/01/07 03:57:38;;;;;;;45.72;21.88;;;3.10;99.90;;;;;;4936594;28;87639;-80
2024/01/07 04:00:05;;;;;;;48.42;20.60;;;3.10;99.90;;;;;;4934289;28;87423;-80
2024/01/07 04:02:31;;;;;;;43.50;20.77;;;3.00;99.90;;;;;;4941712;28;87800;-80
2024/01/07 04:04:57;;;;;;;47.08;20.35;;;2.90;99.90;;;;;;4926099;28;88955;-79
2024/01/07 04:07:23;;;;;;;44.95;20.52;;;2.90;99.90;;;;;;4955771;28;87218;-79
2024/01/07 04:09:49;;;;;;;45.20;19.13;;;2.90;99.90;;;;;;4940119;28;88383;-79
2024/01/07 04:12:15;;;;;;;43.65;18.20;;;2.80;99.90;;;;;;4939626;28;89240;-79
2024/01/07 04:14:40;;;;;;;46.35;20.13;;;2.80;99.90;;;;;;4923302;28;89175;-80
2024/01/07 04:17:08;;;;;;;41.47;18.40;;;2.80;99.90;;;;;;4957468;28;87466;-80
2024/01/07 04:19:36;;;;;;;42.17;17.65;;;2.80;99.90;;;;;;4935483;28;87959;-81
2024/01/07 04:22:03;;;;;;;44.35;18.60;;;2.80;99.90;;;;;;4931754;28;88186;-80
2024/01/07 04:24:28;;;;;;;47.10;18.33;;;2.80;99.90;;;;;;4915004;28;88407;-80
2024/01/07 04:26:55;;;;;;;49.30;18.15;;;2.80;99.90;;;;;;4934813;28;88734;-79
2024/01/07 04:29:20;;;;;;;42.22;17.63;;;2.80;99.90;;;;;;4943933;28;86551;-81
2024/01/07 04:31:46;;;;;;;39.67;17.45;;;2.80;99.90;;;;;;4956017;28;87784;-79
2024/01/07 04:34:12;;;;;;;45.40;17.95;;;2.80;99.90;;;;;;4940965;28;87832;-80
2024/01/07 04:36:39;;;;;;;39.80;17.23;;;2.80;99.90;;;;;;4950078;28;89216;-80
2024/01/07 04:39:05;;;;;;;49.05;19.42;;;2.80;99.90;;;;;;4916957;28;87619;-81
2024/01/07 04:41:31;;;;;;;41.75;18.02;;;2.80;99.90;;;;;;4939214;28;89355;-80
2024/01/07 04:43:57;;;;;;;46.58;18.83;;;2.70;99.90;;;;;;4941359;28;89089;-80
2024/01/07 04:46:25;;;;;;;46.42;18.27;;;2.80;99.90;;;;;;4941222;28;88196;-82
2024/01/07 04:48:58;;;;;;;44.00;18.00;;;2.80;99.90;;;;;;4925088;28;88266;-80
2024/01/07 04:51:25;;;;;;;43.92;19.02;;;2.80;99.90;;;;;;4948586;28;87913;-79
2024/01/07 04:53:50;;;;;;;44.20;16.85;;;2.80;99.90;;;;;;4938672;28;89691;-80
2024/01/07 04:56:17;;;;;;;42.13;16.75;;;2.90;99.90;;;;;;4956350;28;87631;-80
2024/01/07 04:58:44;;;;;;;43.88;17.00;;;2.80;99.90;;;;;;4936476;28;91114;-80
2024/01/07 05:01:10;;;;;;;37.58;16.13;;;2.80;99.90;;;;;;4924127;28;88915;-80
2024/01/07 05:03:41;;;;;;;38.03;15.73;;;2.80;99.90;;;;;;4948926;28;89728;-81
2024/01/07 05:06:15;;;;;;;38.50;16.35;;;2.80;99.90;;;;;;4929283;28;88248;-80
2024/01/07 05:08:45;;;;;;;45.03;17.00;;;2.80;99.90;;;;;;4920664;28;88208;-80
2024/01/07 05:11:11;;;;;;;34.72;14.20;;;2.80;99.90;;;;;;4916560;28;88757;-81
2024/01/07 05:13:37;;;;;;;41.80;16.73;;;2.80;99.90;;;;;;4935758;28;88991;-80
2024/01/07 05:16:03;;;;;;;30.98;13.98;;;2.80;99.90;;;;;;4939389;28;87507;-80
2024/01/07 05:21:51;;;;;;;33.13;15.55;;;2.90;99.90;;;;;;4947495;28;87550;-80
2024/01/07 05:24:17;;;;;;;34.55;15.15;;;2.90;99.90;;;;;;4941973;28;88057;-79
2024/01/07 05:26:44;;;;;;;38.90;15.95;;;2.90;99.90;;;;;;4941295;28;88916;-80
2024/01/07 05:29:10;;;;;;;43.42;17.63;;;2.90;99.90;;;;;;4925000;28;88365;-80
2024/01/07 05:31:36;;;;;;;37.03;16.00;;;2.90;99.90;;;;;;4956993;28;87741;-80
2024/01/07 05:34:07;;;;;;;37.25;15.80;;;2.80;99.90;;;;;;4955876;28;89475;-80
2024/01/07 05:39:56;;;;;;;36.67;15.55;;;2.70;99.90;;;;;;4943213;28;87481;-79
2024/01/07 05:42:23;;;;;;;48.30;16.50;;;2.70;99.90;;;;;;4951662;28;90094;-80
2024/01/07 05:44:52;;;;;;;40.67;16.55;;;2.70;99.90;;;;;;4938223;28;88096;-80
2024/01/07 05:47:18;;;;;;;40.38;16.17;;;2.70;99.90;;;;;;4936223;28;88018;-78
2024/01/07 05:49:46;;;;;;;40.88;17.10;;;2.60;99.90;;;;;;4939976;28;87674;-81
2024/01/07 05:52:18;;;;;;;39.17;16.13;;;2.60;99.90;;;;;;4895698;28;88692;-79
2024/01/07 05:54:44;;;;;;;38.05;16.25;;;2.60;99.90;;;;;;4937674;28;91160;-79
2024/01/07 05:57:13;;;;;;;44.20;16.30;;;2.70;99.90;;;;;;4933136;28;87522;-80
2024/01/07 05:59:40;;;;;;;38.67;17.00;;;2.70;99.90;;;;;;4937497;28;87694;-80
2024/01/07 06:02:52;;;;;;;42.67;16.95;;;2.70;99.90;;;;;;4959241;28;89074;-81
2024/01/07 06:05:18;;;;;;;42.33;16.10;;;2.70;99.90;;;;;;4933597;28;87998;-80
2024/01/07 06:07:43;;;;;;;34.95;15.77;;;2.70;99.90;;;;;;4939206;28;87567;-80
2024/01/07 06:10:11;;;;;;;40.53;16.17;;;2.70;99.90;;;;;;4949231;28;86915;-80
2024/01/07 06:12:36;;;;;;;36.90;15.30;;;2.70;99.90;;;;;;4929205;28;88737;-80
2024/01/07 06:15:05;;;;;;;34.85;14.98;;;2.70;99.90;;;;;;4930779;28;87558;-79
2024/01/07 06:17:36;;;;;;;35.30;15.88;;;2.70;99.90;;;;;;4957361;28;88098;-80
2024/01/07 06:20:02;;;;;;;37.45;14.82;;;2.60;99.90;;;;;;4951634;28;87841;-81
2024/01/07 06:22:28;;;;;;;35.15;14.15;;;2.60;99.90;;;;;;4937524;28;87974;-79
2024/01/07 06:24:54;;;;;;;29.88;13.75;;;2.60;99.90;;;;;;4948814;28;87782;-80
2024/01/07 06:27:20;;;;;;;28.67;13.25;;;2.60;99.90;;;;;;4939048;28;87364;-79
2024/01/07 06:29:46;;;;;;;33.17;13.85;;;2.60;99.90;;;;;;4941024;28;87830;-79
2024/01/07 06:32:14;;;;;;;32.00;13.55;;;2.50;99.90;;;;;;4959931;28;88808;-81
2024/01/07 06:34:41;;;;;;;30.73;13.10;;;2.50;99.90;;;;;;4956929;28;88842;-80
2024/01/07 06:37:08;;;;;;;26.92;12.85;;;2.50;99.90;;;;;;4932277;28;87202;-80
2024/01/07 06:39:34;;;;;;;28.30;13.13;;;2.50;99.90;;;;;;4934536;28;88599;-81
2024/01/07 06:42:01;;;;;;;28.63;13.45;;;2.50;99.90;;;;;;4911949;28;89359;-80
2024/01/07 06:44:28;;;;;;;27.63;13.35;;;2.50;99.90;;;;;;4953823;28;89446;-80
2024/01/07 06:46:54;;;;;;;28.98;13.50;;;2.50;99.90;;;;;;4949117;28;87770;-79
2024/01/07 06:49:21;;;;;;;28.85;13.00;;;2.40;99.90;;;;;;4930008;28;87651;-80
2024/01/07 06:51:47;;;;;;;31.58;13.30;;;2.40;99.90;;;;;;4953323;28;87755;-79
2024/01/07 06:54:20;;;;;;;28.95;14.15;;;2.40;99.90;;;;;;4954603;28;88873;-80
2024/01/07 06:56:49;;;;;;;28.25;13.40;;;2.40;99.90;;;;;;4934540;28;87728;-79
2024/01/07 06:59:15;;;;;;;29.33;12.60;;;2.40;99.90;;;;;;4953760;28;87591;-79
2024/01/07 07:01:42;;;;;;;30.17;13.68;;;2.40;99.90;;;;;;4941420;28;88607;-81
2024/01/07 07:04:08;;;;;;;33.80;15.07;;;2.40;99.90;;;;;;4940729;28;89050;-79
2024/01/07 07:06:34;;;;;;;29.83;13.77;;;2.40;99.90;;;;;;4942094;28;88225;-80
2024/01/07 07:09:01;;;;;;;29.60;13.75;;;2.30;99.90;;;;;;4960516;28;87758;-80
2024/01/07 07:11:30;;;;;;;28.35;14.38;;;2.30;99.90;;;;;;4941241;28;88253;-80
2024/01/07 07:13:56;;;;;;;30.15;14.50;;;2.30;99.90;;;;;;4961338;28;88429;-80
2024/01/07 07:16:22;;;;;;;33.85;15.40;;;2.40;99.90;;;;;;4942250;28;87187;-79
2024/01/07 07:18:48;;;;;;;37.45;15.88;;;2.30;99.90;;;;;;4951479;28;87823;-79
2024/01/07 07:21:14;;;;;;;36.10;14.30;;;2.30;99.90;;;;;;4939478;28;88092;-79
2024/01/07 07:23:40;;;;;;;33.03;14.77;;;2.30;99.90;;;;;;4922747;28;88276;-80
2024/01/07 07:26:06;;;;;;;34.70;15.23;;;2.40;99.90;;;;;;4912750;28;87418;-79
2024/01/07 07:28:33;;;;;;;30.45;14.93;;;2.40;99.90;;;;;;4951073;28;87803;-79
2024/01/07 07:30:59;;;;;;;30.45;14.05;;;2.30;99.90;;;;;;4934041;28;88620;-79
2024/01/07 07:33:25;;;;;;;27.48;13.40;;;2.40;99.90;;;;;;4906939;28;89288;-79
2024/01/07 07:35:53;;;;;;;30.10;14.45;;;2.40;99.90;;;;;;4922983;28;87890;-80
2024/01/07 07:38:22;;;;;;;30.45;13.18;;;2.40;99.90;;;;;;4953195;28;88145;-81
2024/01/07 07:40:52;;;;;;;24.85;13.25;;;2.40;99.90;;;;;;4940811;28;87834;-79
2024/01/07 07:43:20;;;;;;;27.75;13.70;;;2.40;99.90;;;;;;4951763;28;88320;-79
2024/01/07 07:45:46;;;;;;;26.20;13.18;;;2.40;99.90;;;;;;4937445;28;87202;-79
2024/01/07 07:48:11;;;;;;;26.98;12.15;;;2.40;99.90;;;;;;4927860;28;87664;-79
2024/01/07 07:50:37;;;;;;;27.45;13.70;;;2.30;99.90;;;;;;4936668;28;88803;-79
2024/01/07 07:53:03;;;;;;;27.42;13.77;;;2.30;99.90;;;;;;4938439;28;87785;-78
2024/01/07 07:55:29;;;;;;;28.45;13.85;;;2.30;99.90;;;;;;4920791;28;89315;-79
2024/01/07 07:57:55;;;;;;;29.15;13.75;;;2.30;99.90;;;;;;4954719;28;88097;-79
2024/01/07 08:00:23;;;;;;;25.95;14.10;;;2.30;99.90;;;;;;4937894;28;89802;-79
2024/01/07 08:02:48;;;;;;;27.23;14.73;;;2.30;99.90;;;;;;4919694;28;88805;-79
2024/01/07 08:05:16;;;;;;;31.00;14.82;;;2.30;99.90;;;;;;4948668;28;88336;-79
2024/01/07 08:07:42;;;;;;;33.10;14.55;;;2.20;99.90;;;;;;4947755;28;92230;-79
2024/01/07 08:10:09;;;;;;;32.83;16.27;;;2.20;99.90;;;;;;4919192;28;89115;-79
2024/01/07 08:12:35;;;;;;;30.55;14.93;;;2.20;99.90;;;;;;4931777;28;88531;-79
2024/01/07 08:15:02;;;;;;;29.63;14.35;;;2.20;99.90;;;;;;4914586;28;89197;-79
2024/01/07 08:17:28;;;;;;;35.50;15.73;;;2.20;99.90;;;;;;4948381;28;87678;-79
2024/01/07 08:19:54;;;;;;;30.77;16.05;;;2.20;99.90;;;;;;4936822;28;90182;-78
2024/01/07 08:22:19;;;;;;;29.10;14.73;;;2.10;99.90;;;;;;4936447;28;88464;-79
2024/01/07 08:24:45;;;;;;;25.95;13.75;;;2.10;99.90;;;;;;4933403;28;88028;-79
2024/01/07 08:27:11;;;;;;;28.65;14.52;;;2.00;99.90;;;;;;4923619;28;87990;-79
2024/01/07 08:29:38;;;;;;;26.30;14.48;;;2.10;99.90;;;;;;4947560;28;89524;-79
2024/01/07 08:32:05;;;;;;;31.13;14.73;;;2.10;99.90;;;;;;4937242;28;88581;-79
2024/01/07 08:34:31;;;;;;;30.42;15.68;;;2.10;99.90;;;;;;4933823;28;87830;-79
2024/01/07 08:36:57;;;;;;;30.40;15.48;;;2.10;99.90;;;;;;4918817;28;87199;-78
2024/01/07 08:39:25;;;;;;;33.58;15.18;;;2.10;99.90;;;;;;4933190;28;88735;-78
2024/01/07 08:41:51;;;;;;;30.75;15.05;;;2.10;99.90;;;;;;4948815;28;89070;-78
2024/01/07 08:44:17;;;;;;;27.20;14.63;;;2.10;99.90;;;;;;4949378;28;88337;-80
2024/01/07 08:46:42;;;;;;;33.72;15.52;;;2.10;99.90;;;;;;4934021;28;92399;-79
2024/01/07 08:49:08;;;;;;;35.35;15.90;;;2.10;99.90;;;;;;4919463;28;88663;-79
2024/01/07 08:51:35;;;;;;;31.67;14.77;;;2.10;99.90;;;;;;4934360;28;90039;-79
2024/01/07 08:54:01;;;;;;;29.85;14.30;;;2.10;99.90;;;;;;4935379;28;87754;-78
2024/01/07 08:56:28;;;;;;;28.52;14.30;;;2.10;99.90;;;;;;4952476;28;88166;-79
2024/01/07 08:58:55;;;;;;;33.22;14.93;;;2.10;99.90;;;;;;4933857;28;89342;-78
2024/01/07 09:01:21;;;;;;;26.25;14.32;;;2.10;99.90;;;;;;4948613;28;88154;-79
2024/01/07 09:03:48;;;;;;;30.35;13.85;;;2.10;99.90;;;;;;4948250;28;87717;-79
2024/01/07 09:06:15;;;;;;;32.60;15.02;;;2.10;99.90;;;;;;4935658;28;87783;-78
2024/01/07 09:08:42;;;;;;;34.92;15.18;;;2.10;99.90;;;;;;4933121;28;89677;-79
2024/01/07 09:11:11;;;;;;;26.52;14.07;;;2.10;99.90;;;;;;4928728;28;89769;-78
2024/01/07 09:13:37;;;;;;;28.70;14.40;;;2.20;99.90;;;;;;4947566;28;87758;-79
2024/01/07 09:16:03;;;;;;;29.60;14.88;;;2.20;99.90;;;;;;4931361;28;87710;-80
2024/01/07 09:18:30;;;;;;;30.08;15.15;;;2.20;99.90;;;;;;4935136;28;88351;-79
2024/01/07 09:20:56;;;;;;;28.00;14.82;;;2.20;99.90;;;;;;4931353;28;88929;-79
2024/01/07 09:23:22;;;;;;;25.65;14.18;;;2.20;99.90;;;;;;4933420;28;88088;-79
2024/01/07 09:25:49;;;;;;;29.80;14.65;;;2.10;99.90;;;;;;4934550;28;87780;-79
2024/01/07 09:28:15;;;;;;;30.80;15.70;;;2.20;99.90;;;;;;4915851;28;88418;-79
2024/01/07 09:30:44;;;;;;;32.40;15.50;;;2.20;99.90;;;;;;4936837;28;87924;-79
2024/01/07 09:33:10;;;;;;;31.38;15.55;;;2.10;99.90;;;;;;4965570;28;89025;-77
2024/01/07 09:35:36;;;;;;;33.13;16.02;;;2.10;99.90;;;;;;4951374;28;88025;-78
2024/01/07 09:38:03;;;;;;;31.85;15.25;;;2.10;99.90;;;;;;4950070;28;87462;-77
2024/01/07 09:40:33;;;;;;;34.00;16.02;;;2.10;99.90;;;;;;4953876;28;88188;-77
2024/01/07 09:42:59;;;;;;;31.00;16.00;;;2.10;99.90;;;;;;4963939;28;87657;-78
2024/01/07 09:45:39;;;;;;;29.27;15.10;;;2.10;99.90;;;;;;5056991;23;88006;-79
2024/01/07 09:51:16;;;;;;;32.03;15.40;;;2.20;99.90;;;;;;4968740;23;89196;-85
2024/01/07 09:57:54;;;;;;;33.95;16.15;;;2.10;99.90;;;;;;4937912;28;86999;-83
2024/01/07 10:00:56;;;;;;;32.92;15.32;;;2.10;99.90;;;;;;4961070;28;88272;-84
2024/01/07 10:07:11;;;;;;;34.60;15.85;;;2.10;99.90;;;;;;4958219;28;86386;-85
2024/01/07 10:10:28;;;;;;;30.83;16.13;;;2.10;99.90;;;;;;4912144;28;87180;-83
2024/01/07 10:13:40;;;;;;;31.98;15.65;;;2.10;99.90;;;;;;4902220;28;91848;-84
2024/01/07 10:16:38;;;;;;;34.10;16.02;;;2.10;99.90;;;;;;4894100;28;87436;-83
2024/01/07 10:20:13;;;;;;;34.42;16.23;;;2.10;99.90;;;;;;4939203;28;87224;-85
2024/01/07 10:22:58;;;;;;;32.15;15.73;;;2.20;99.90;;;;;;4917655;23;86454;-79
2024/01/07 10:25:24;;;;;;;34.38;16.85;;;2.20;99.90;;;;;;4930953;28;89161;-79
2024/01/07 10:27:52;;;;;;;37.90;17.42;;;2.20;99.90;;;;;;4923505;28;88793;-79
2024/01/07 10:30:18;;;;;;;40.28;17.67;;;2.20;99.90;;;;;;4885703;28;88933;-79
2024/01/07 10:32:44;;;;;;;35.88;17.17;;;2.20;99.90;;;;;;4899753;28;87921;-79
2024/01/07 10:35:16;;;;;;;32.58;16.17;;;2.20;99.90;;;;;;4912078;28;88473;-78
2024/01/07 10:37:42;;;;;;;34.22;16.38;;;2.20;99.90;;;;;;4927410;28;89411;-78
2024/01/07 10:40:12;;;;;;;36.08;16.95;;;2.20;99.90;;;;;;4913611;28;87380;-79
2024/01/07 10:42:39;;;;;;;33.22;16.45;;;2.20;99.90;;;;;;4929991;28;88024;-79
2024/01/07 10:45:05;;;;;;;31.77;16.02;;;2.30;99.90;;;;;;4927670;28;88542;-78
2024/01/07 10:47:32;;;;;;;35.42;15.90;;;2.30;99.90;;;;;;4904515;28;88906;-79
2024/01/07 10:49:59;;;;;;;30.33;16.17;;;2.20;99.90;;;;;;4934039;28;87599;-78
2024/01/07 10:52:29;;;;;;;31.20;15.93;;;2.30;99.90;;;;;;4930497;28;88380;-78
2024/01/07 10:54:58;;;;;;;29.52;15.73;;;2.20;99.90;;;;;;4915533;28;90127;-79
2024/01/07 10:57:42;;;;;;;32.75;17.00;;;2.20;99.90;;;;;;4917294;28;90072;-77
2024/01/07 11:00:18;;;;;;;29.15;15.07;;;2.20;99.90;;;;;;4933166;28;87377;-79
2024/01/07 11:03:15;;;;;;;29.60;15.57;;;2.20;99.90;;;;;;4914726;28;87570;-78
2024/01/07 11:05:46;;;;;;;31.20;14.98;;;2.20;99.90;;;;;;4926360;28;88064;-80
2024/01/07 11:08:32;;;;;;;31.90;15.63;;;2.20;99.90;;;;;;4931346;28;87580;-79
2024/01/07 11:11:31;;;;;;;31.65;15.70;;;2.20;99.90;;;;;;4930785;28;87231;-79
2024/01/07 11:13:57;;;;;;;34.45;17.52;;;2.20;99.90;;;;;;4913094;28;88391;-79
2024/01/07 11:16:43;;;;;;;31.75;16.40;;;2.20;99.90;;;;;;4928841;28;88181;-80
2024/01/07 11:19:12;;;;;;;29.63;15.52;;;2.10;99.90;;;;;;4913297;28;89081;-78
2024/01/07 11:21:39;;;;;;;30.70;15.48;;;2.20;99.90;;;;;;4912136;28;88337;-79
2024/01/07 11:24:06;;;;;;;31.40;16.38;;;2.20;99.90;;;;;;4913680;28;87317;-78
2024/01/07 11:26:33;;;;;;;35.45;15.68;;;2.20;99.90;;;;;;4912994;28;88270;-79
2024/01/07 11:29:00;;;;;;;31.98;16.27;;;2.20;99.90;;;;;;4912780;28;88768;-79
2024/01/07 11:31:41;;;;;;;31.58;16.52;;;2.20;99.90;;;;;;4913148;28;87263;-80
2024/01/07 11:34:08;;;;;;;29.45;16.10;;;2.20;99.90;;;;;;4931540;28;87661;-79
2024/01/07 11:36:38;;;;;;;30.98;16.13;;;2.20;99.90;;;;;;4931501;28;88282;-78
2024/01/07 11:39:08;;;;;;;32.50;16.27;;;2.20;99.90;;;;;;4894305;28;88312;-79
2024/01/07 11:41:35;;;;;;;29.73;15.88;;;2.10;99.90;;;;;;4902815;28;87918;-78
2024/01/07 11:44:02;;;;;;;32.80;16.67;;;2.10;99.90;;;;;;4931045;28;88026;-79
2024/01/07 11:46:34;;;;;;;33.40;16.40;;;2.10;99.90;;;;;;4916343;28;89158;-79
2024/01/07 11:49:01;;;;;;;34.60;17.38;;;2.10;99.90;;;;;;4916309;28;88518;-78
2024/01/07 11:51:31;;;;;;;32.80;16.77;;;2.10;99.90;;;;;;4937215;28;87398;-80
2024/01/07 11:54:01;;;;;;;31.73;17.17;;;2.10;99.90;;;;;;4917888;28;87559;-79
2024/01/07 11:56:28;;;;;;;35.17;17.63;;;2.20;99.90;;;;;;4905680;28;88294;-78
2024/01/07 11:58:59;;;;;;;33.72;17.55;;;2.10;99.90;;;;;;4935953;28;87805;-81
2024/01/07 12:01:26;;;;;;;36.28;16.70;;;2.10;99.90;;;;;;4916780;28;88732;-78
2024/01/07 12:03:51;;;;;;;34.38;16.33;;;2.10;99.90;;;;;;4916231;28;87528;-79
2024/01/07 12:06:19;;;;;;;28.52;15.98;;;2.10;99.90;;;;;;4916797;28;88954;-78
2024/01/07 12:08:45;;;;;;;33.53;17.35;;;2.10;99.90;;;;;;4916219;28;88036;-80
2024/01/07 12:11:12;;;;;;;36.20;18.83;;;2.10;99.90;;;;;;4934908;28;88521;-79
2024/01/07 12:13:42;;;;;;;35.50;17.67;;;2.00;99.90;;;;;;4934924;28;89341;-80
2024/01/07 12:16:08;;;;;;;31.60;16.75;;;2.00;99.90;;;;;;4905641;28;89051;-79
2024/01/07 12:18:38;;;;;;;33.45;16.95;;;2.00;99.90;;;;;;4906869;28;87933;-80
2024/01/07 12:21:04;;;;;;;32.33;16.90;;;1.90;99.90;;;;;;4947405;28;87325;-82
2024/01/07 12:23:37;;;;;;;30.65;16.23;;;1.90;99.90;;;;;;4931458;28;87366;-80
2024/01/07 12:26:11;;;;;;;31.48;17.58;;;1.90;99.90;;;;;;4947024;28;89344;-80
2024/01/07 12:28:38;;;;;;;28.48;16.25;;;1.90;99.90;;;;;;4923480;28;86825;-81
2024/01/07 12:31:05;;;;;;;31.55;15.75;;;2.00;99.90;;;;;;4906956;28;87935;-78
2024/01/07 12:33:31;;;;;;;31.13;15.48;;;2.00;99.90;;;;;;4939014;28;87201;-79
2024/01/07 12:35:58;;;;;;;32.70;16.40;;;1.90;99.90;;;;;;4924978;28;89858;-81
2024/01/07 12:38:28;;;;;;;29.42;14.88;;;1.90;99.90;;;;;;4943762;28;88738;-79
2024/01/07 12:40:56;;;;;;;29.77;16.23;;;1.90;99.90;;;;;;4924680;28;87665;-78
2024/01/07 12:43:22;;;;;;;32.85;16.27;;;2.00;99.90;;;;;;4926944;28;87418;-79
2024/01/07 12:45:49;;;;;;;33.33;15.98;;;2.00;99.90;;;;;;4938424;28;87691;-79
2024/01/07 12:48:17;;;;;;;31.83;15.40;;;2.00;99.90;;;;;;4944963;28;88210;-77
2024/01/07 12:50:44;;;;;;;31.08;15.73;;;2.00;99.90;;;;;;4944851;28;87805;-79
2024/01/07 12:53:16;;;;;;;27.80;15.40;;;2.00;99.90;;;;;;4945271;28;86651;-80
2024/01/07 12:55:44;;;;;;;31.00;15.57;;;2.00;99.90;;;;;;4933902;28;88179;-79
2024/01/07 12:58:10;;;;;;;28.23;16.25;;;2.00;99.90;;;;;;4921270;28;88448;-78